createdAt,value
2023-01-20T00:01:48.029Z,0.62
2023-01-20T00:04:19.152Z,0.60
2023-01-20T00:06:47.831Z,0.59
2023-01-20T00:09:18.088Z,0.57
2023-01-20T00:11:47.366Z,0.58
2023-01-20T00:14:16.083Z,0.57
2023-01-20T00:16:46.369Z,0.57
2023-01-20T00:19:15.292Z,0.55
2023-01-20T00:21:44.201Z,0.53
2023-01-20T00:24:12.758Z,0.50
2023-01-20T00:26:41.177Z,0.47
2023-01-20T00:29:10.716Z,0.43
2023-01-20T00:31:39.306Z,0.40
2023-01-20T00:34:11.078Z,0.36
2023-01-20T00:36:39.373Z,0.31
2023-01-20T00:39:08.283Z,0.29
2023-01-20T00:41:37.093Z,0.27
2023-01-20T00:44:05.813Z,0.24
2023-01-20T00:46:34.346Z,0.23
2023-01-20T00:49:02.808Z,0.22
2023-01-20T00:51:32.496Z,0.25
2023-01-20T00:54:00.851Z,0.31
2023-01-20T00:56:29.210Z,0.36
2023-01-20T00:58:57.683Z,0.44
2023-01-20T01:01:26.452Z,0.54
2023-01-20T01:03:55.309Z,0.64
2023-01-20T01:06:23.930Z,0.68
2023-01-20T01:08:54.007Z,0.70
2023-01-20T01:11:22.400Z,0.76
2023-01-20T01:13:50.882Z,0.81
2023-01-20T01:16:19.449Z,0.86
2023-01-20T01:18:47.880Z,0.92
2023-01-20T01:21:18.007Z,0.96
2023-01-20T01:23:46.604Z,0.99
2023-01-20T01:26:16.525Z,1.02
2023-01-20T01:28:45.357Z,1.03
2023-01-20T01:31:13.992Z,1.08
2023-01-20T01:33:42.784Z,1.08
2023-01-20T01:36:16.080Z,1.14
2023-01-20T01:38:45.142Z,1.17
2023-01-20T01:41:28.683Z,1.22
2023-01-20T01:44:08.492Z,1.25
2023-01-20T01:46:37.237Z,1.27
2023-01-20T01:49:09.834Z,1.29
2023-01-20T01:51:44.215Z,1.30
2023-01-20T01:54:17.712Z,1.33
2023-01-20T01:56:49.360Z,1.36
2023-01-20T01:59:18.963Z,1.37
2023-01-20T02:01:53.425Z,1.39
2023-01-20T02:04:24.363Z,1.40
2023-01-20T02:07:08.590Z,1.39
2023-01-20T02:09:38.675Z,1.37
2023-01-20T02:12:14.431Z,1.36
2023-01-20T02:14:48.572Z,1.38
2023-01-20T02:17:26.517Z,1.40
2023-01-20T02:20:32.103Z,1.40
2023-01-20T02:23:09.400Z,1.39
2023-01-20T02:26:03.280Z,1.39
2023-01-20T02:28:59.599Z,1.36
2023-01-20T02:32:26.907Z,1.32
2023-01-20T02:35:01.922Z,1.33
2023-01-20T02:37:37.684Z,1.37
2023-01-20T02:40:21.111Z,1.40
2023-01-20T02:42:58.858Z,1.43
2023-01-20T02:45:34.516Z,1.44
2023-01-20T02:48:10.847Z,1.49
2023-01-20T02:50:53.434Z,1.52
2023-01-20T02:53:24.200Z,1.52
2023-01-20T02:55:55.655Z,1.52
2023-01-20T02:58:30.678Z,1.53
2023-01-20T03:01:04.175Z,1.56
2023-01-20T03:03:37.583Z,1.58
2023-01-20T03:06:13.893Z,1.60
2023-01-20T03:08:43.745Z,1.61
2023-01-20T03:11:12.679Z,1.62
2023-01-20T03:13:48.444Z,1.62
2023-01-20T03:16:22.373Z,1.64
2023-01-20T03:18:53.390Z,1.67
2023-01-20T03:21:24.325Z,1.71
2023-01-20T03:23:55.946Z,1.74
2023-01-20T03:26:25.143Z,1.75
2023-01-20T03:28:54.672Z,1.76
2023-01-20T03:31:25.861Z,1.73
2023-01-20T03:33:57.671Z,1.70
2023-01-20T03:36:30.718Z,1.67
2023-01-20T03:39:01.548Z,1.65
2023-01-20T03:41:43.764Z,1.65
2023-01-20T03:44:22.379Z,1.61
2023-01-20T03:46:56.787Z,1.61
2023-01-20T03:49:32.386Z,1.60
2023-01-20T03:52:10.353Z,1.55
2023-01-20T03:54:48.816Z,1.58
2023-01-20T03:57:22.618Z,1.57
2023-01-20T03:59:53.334Z,1.60
2023-01-20T04:02:24.917Z,1.61
2023-01-20T04:04:55.464Z,1.62
2023-01-20T04:07:27.566Z,1.62
2023-01-20T04:10:03.464Z,1.61
2023-01-20T04:12:31.903Z,1.60
2023-01-20T04:15:01.631Z,1.61
2023-01-20T04:17:30.997Z,1.62
2023-01-20T04:20:07.443Z,1.65
2023-01-20T04:22:45.497Z,1.68
2023-01-20T04:25:22.288Z,1.67
2023-01-20T04:27:50.907Z,1.64
2023-01-20T04:30:19.776Z,1.62
2023-01-20T04:32:48.099Z,1.62
2023-01-20T04:35:19.826Z,1.62
2023-01-20T04:37:49.501Z,1.61
2023-01-20T04:40:18.340Z,1.62
2023-01-20T04:42:46.820Z,1.62
2023-01-20T04:45:17.793Z,1.65
2023-01-20T04:47:46.780Z,1.66
2023-01-20T04:50:15.773Z,1.66
2023-01-20T04:52:45.061Z,1.66
2023-01-20T04:55:15.461Z,1.68
2023-01-20T04:57:44.250Z,1.69
2023-01-20T05:00:19.973Z,1.69
2023-01-20T05:02:48.695Z,1.66
2023-01-20T05:05:17.877Z,1.64
2023-01-20T05:07:46.744Z,1.66
2023-01-20T05:10:16.902Z,1.66
2023-01-20T05:12:45.602Z,1.71
2023-01-20T05:15:14.366Z,1.70
2023-01-20T05:17:42.891Z,1.74
2023-01-20T05:20:12.760Z,1.74
2023-01-20T05:22:41.410Z,1.74
2023-01-20T05:25:11.097Z,1.72
2023-01-20T05:27:40.822Z,1.72
2023-01-20T05:30:11.186Z,1.74
2023-01-20T05:32:39.910Z,1.75
2023-01-20T05:35:10.775Z,1.75
2023-01-20T05:37:39.238Z,1.75
2023-01-20T05:40:09.851Z,1.75
2023-01-20T05:42:40.172Z,1.74
2023-01-20T05:45:10.449Z,1.77
2023-01-20T05:47:39.249Z,1.77
2023-01-20T05:50:09.344Z,1.77
2023-01-20T05:52:38.191Z,1.76
2023-01-20T05:55:07.454Z,1.76
2023-01-20T05:57:36.788Z,1.76
2023-01-20T06:00:09.128Z,1.77
2023-01-20T06:02:37.654Z,1.75
2023-01-20T06:05:07.442Z,1.77
2023-01-20T06:07:35.961Z,1.77
2023-01-20T06:10:04.815Z,1.76
2023-01-20T06:12:33.159Z,1.76
2023-01-20T06:15:01.553Z,1.76
2023-01-20T06:17:31.434Z,1.77
2023-01-20T06:20:00.414Z,1.77
2023-01-20T06:22:29.113Z,1.78
2023-01-20T06:24:57.637Z,1.78
2023-01-20T06:27:26.747Z,1.78
2023-01-20T06:29:55.147Z,1.76
2023-01-20T06:32:23.670Z,1.74
2023-01-20T06:34:54.038Z,1.73
2023-01-20T06:37:22.428Z,1.70
2023-01-20T06:39:51.102Z,1.71
2023-01-20T06:42:19.373Z,1.69
2023-01-20T06:44:47.685Z,1.68
2023-01-20T06:47:16.016Z,1.69
2023-01-20T06:49:44.926Z,1.73
2023-01-20T06:52:14.929Z,1.75
2023-01-20T06:54:43.616Z,1.74
2023-01-20T06:57:12.522Z,1.74
2023-01-20T06:59:40.846Z,1.77
2023-01-20T07:02:14.432Z,1.76
2023-01-20T07:04:43.769Z,1.77
2023-01-20T07:07:14.685Z,1.78
2023-01-20T07:09:42.946Z,1.78
2023-01-20T07:12:11.380Z,1.78
2023-01-20T07:14:39.649Z,1.79
2023-01-20T07:17:13.681Z,1.80
2023-01-20T07:19:42.153Z,1.80
2023-01-20T07:22:11.052Z,1.80
2023-01-20T07:24:40.868Z,1.81
2023-01-20T07:27:09.358Z,1.83
2023-01-20T07:29:38.098Z,1.85
2023-01-20T07:32:07.233Z,1.87
2023-01-20T07:34:36.000Z,1.86
2023-01-20T07:37:04.369Z,1.87
2023-01-20T07:39:32.701Z,1.88
2023-01-20T07:42:03.811Z,1.89
2023-01-20T07:44:33.242Z,1.89
2023-01-20T07:47:01.611Z,1.90
2023-01-20T07:49:30.188Z,1.92
2023-01-20T07:51:58.700Z,1.94
2023-01-20T07:54:27.082Z,1.93
2023-01-20T07:56:55.412Z,1.96
2023-01-20T07:59:26.447Z,1.96
2023-01-20T08:01:54.858Z,1.97
2023-01-20T08:04:23.577Z,1.96
2023-01-20T08:06:52.210Z,1.96
2023-01-20T08:09:23.042Z,1.96
2023-01-20T08:11:51.473Z,1.97
2023-01-20T08:14:19.714Z,1.99
2023-01-20T08:16:49.620Z,2.02
2023-01-20T08:19:17.977Z,2.04
2023-01-20T08:21:46.581Z,2.06
2023-01-20T08:24:14.844Z,2.08
2023-01-20T08:26:43.652Z,2.12
2023-01-20T08:29:12.022Z,2.13
2023-01-20T08:31:41.740Z,2.15
2023-01-20T08:34:13.128Z,2.17
2023-01-20T08:36:42.801Z,2.17
2023-01-20T08:39:15.083Z,2.19
2023-01-20T08:41:45.950Z,2.22
2023-01-20T08:44:14.479Z,2.24
2023-01-20T08:46:44.448Z,2.28
2023-01-20T08:49:17.357Z,2.30
2023-01-20T08:51:46.058Z,2.31
2023-01-20T08:54:15.892Z,2.35
2023-01-20T08:56:45.085Z,2.40
2023-01-20T08:59:13.444Z,2.45
2023-01-20T09:01:43.422Z,2.50
2023-01-20T09:04:13.894Z,2.54
2023-01-20T09:06:46.216Z,2.60
2023-01-20T09:09:15.864Z,2.63
2023-01-20T09:11:51.445Z,2.67
2023-01-20T09:14:22.250Z,2.69
2023-01-20T09:16:51.244Z,2.74
2023-01-20T09:19:21.222Z,2.77
2023-01-20T09:21:49.569Z,2.78
2023-01-20T09:24:17.971Z,2.77
2023-01-20T09:26:46.367Z,2.79
2023-01-20T09:29:17.183Z,2.79
2023-01-20T09:31:51.272Z,2.79
2023-01-20T09:34:25.199Z,2.82
2023-01-20T09:36:55.507Z,2.84
2023-01-20T09:39:42.597Z,2.85
2023-01-20T09:42:47.782Z,2.82
2023-01-20T09:45:25.903Z,2.84
2023-01-20T09:48:04.475Z,2.86
2023-01-20T09:51:03.162Z,2.88
2023-01-20T09:53:48.642Z,2.90
2023-01-20T09:56:21.348Z,2.92
2023-01-20T09:58:59.257Z,2.92
2023-01-20T10:01:35.816Z,2.98
2023-01-20T10:04:14.168Z,2.97
2023-01-20T10:06:48.940Z,2.98
2023-01-20T10:09:27.166Z,3.04
2023-01-20T10:12:01.213Z,3.10
2023-01-20T10:14:34.765Z,3.11
2023-01-20T10:17:11.047Z,3.12
2023-01-20T10:19:47.435Z,3.11
2023-01-20T10:22:23.371Z,3.16
2023-01-20T10:25:07.853Z,3.18
2023-01-20T10:27:41.540Z,3.23
2023-01-20T10:30:14.647Z,3.22
2023-01-20T10:32:54.593Z,3.23
2023-01-20T10:35:28.294Z,3.26
2023-01-20T10:37:59.077Z,3.28
2023-01-20T10:40:38.099Z,3.27
2023-01-20T10:43:13.576Z,3.28
2023-01-20T10:46:03.842Z,3.25
2023-01-20T10:48:53.878Z,3.26
2023-01-20T10:51:33.784Z,3.25
2023-01-20T10:54:16.783Z,3.26
2023-01-20T10:56:53.552Z,3.27
2023-01-20T10:59:32.477Z,3.23
2023-01-20T11:02:11.926Z,3.21
2023-01-20T11:04:41.229Z,3.20
2023-01-20T11:07:17.783Z,3.20
2023-01-20T11:09:49.971Z,3.21
2023-01-20T11:12:25.028Z,3.23
2023-01-20T11:14:55.540Z,3.25
2023-01-20T11:17:24.808Z,3.26
2023-01-20T11:19:55.499Z,3.29
2023-01-20T11:22:30.982Z,3.31
2023-01-20T11:25:04.052Z,3.31
2023-01-20T11:27:41.881Z,3.32
2023-01-20T11:30:26.323Z,3.31
2023-01-20T11:33:18.486Z,3.34
2023-01-20T11:36:00.429Z,3.36
2023-01-20T11:38:31.712Z,3.35
2023-01-20T11:41:02.008Z,3.33
2023-01-20T11:43:37.870Z,3.34
2023-01-20T11:46:22.594Z,3.33
2023-01-20T11:48:52.178Z,3.31
2023-01-20T11:51:25.397Z,3.32
2023-01-20T11:54:09.712Z,3.33
2023-01-20T11:56:43.815Z,3.39
2023-01-20T11:59:24.202Z,3.47
2023-01-20T12:01:58.085Z,3.58
2023-01-20T12:04:52.953Z,3.63
2023-01-20T12:07:28.099Z,3.60
2023-01-20T12:10:06.039Z,3.58
2023-01-20T12:12:41.551Z,3.56
2023-01-20T12:15:18.280Z,3.54
2023-01-20T12:17:57.495Z,3.52
2023-01-20T12:20:32.832Z,3.52
2023-01-20T12:23:21.458Z,3.55
2023-01-20T12:25:57.466Z,3.57
2023-01-20T12:28:37.041Z,3.55
2023-01-20T12:31:07.922Z,3.51
2023-01-20T12:33:39.214Z,3.47
2023-01-20T12:36:33.808Z,3.43
2023-01-20T12:39:39.224Z,3.46
2023-01-20T12:42:47.950Z,3.51
2023-01-20T12:45:36.978Z,3.55
2023-01-20T12:48:28.407Z,3.54
2023-01-20T12:51:15.857Z,3.52
2023-01-20T12:54:06.740Z,3.50
2023-01-20T12:56:41.953Z,3.49
2023-01-20T12:59:22.713Z,3.50
2023-01-20T13:02:27.458Z,3.49
2023-01-20T13:05:25.479Z,3.48
2023-01-20T13:08:12.163Z,3.50
2023-01-20T13:10:53.516Z,3.52
2023-01-20T13:13:55.860Z,3.51
2023-01-20T13:16:34.475Z,3.52
2023-01-20T13:19:15.182Z,3.51
2023-01-20T13:21:43.986Z,3.53
2023-01-20T13:24:24.284Z,3.58
2023-01-20T13:26:53.652Z,3.62
2023-01-20T13:29:43.949Z,3.64
2023-01-20T13:32:33.553Z,3.64
2023-01-20T13:35:23.069Z,3.59
2023-01-20T13:37:53.725Z,3.55
2023-01-20T13:40:53.271Z,3.54
2023-01-20T13:43:58.066Z,3.52
2023-01-20T13:46:49.556Z,3.52
2023-01-20T13:49:48.147Z,3.52
2023-01-20T13:53:03.989Z,3.54
2023-01-20T13:55:51.480Z,3.55
2023-01-20T13:58:21.729Z,3.60
2023-01-20T14:00:52.657Z,3.61
2023-01-20T14:03:27.829Z,3.57
2023-01-20T14:05:59.528Z,3.52
2023-01-20T14:08:32.297Z,3.50
2023-01-20T14:11:14.269Z,3.49
2023-01-20T14:13:44.876Z,3.49
2023-01-20T14:16:21.646Z,3.46
2023-01-20T14:18:50.178Z,3.45
2023-01-20T14:21:22.483Z,3.42
2023-01-20T14:23:52.943Z,3.44
2023-01-20T14:26:27.697Z,3.46
2023-01-20T14:28:57.973Z,3.45
2023-01-20T14:31:40.746Z,3.46
2023-01-20T14:34:32.541Z,3.43
2023-01-20T14:37:15.633Z,3.42
2023-01-20T14:39:50.458Z,3.42
2023-01-20T14:42:21.582Z,3.40
2023-01-20T14:44:51.381Z,3.37
2023-01-20T14:47:21.452Z,3.37
2023-01-20T14:49:51.529Z,3.36
2023-01-20T14:52:25.888Z,3.35
2023-01-20T14:54:56.535Z,3.33
2023-01-20T14:57:29.209Z,3.32
2023-01-20T15:00:16.712Z,3.32
2023-01-20T15:03:01.357Z,3.36
2023-01-20T15:05:40.499Z,3.33
2023-01-20T15:08:26.080Z,3.33
2023-01-20T15:11:25.085Z,3.32
2023-01-20T15:14:12.836Z,3.31
2023-01-20T15:16:49.509Z,3.31
2023-01-20T15:19:37.109Z,3.28
2023-01-20T15:22:24.349Z,3.29
2023-01-20T15:24:53.776Z,3.32
2023-01-20T15:27:31.395Z,3.35
2023-01-20T15:30:20.971Z,3.34
2023-01-20T15:32:51.376Z,3.32
2023-01-20T15:35:23.034Z,3.32
2023-01-20T15:37:52.486Z,3.31
2023-01-20T15:40:23.465Z,3.32
2023-01-20T15:42:54.887Z,3.33
2023-01-20T15:45:25.544Z,3.35
2023-01-20T15:47:54.035Z,3.34
2023-01-20T15:50:26.698Z,3.30
2023-01-20T15:52:55.044Z,3.28
2023-01-20T15:55:23.856Z,3.29
2023-01-20T15:57:54.367Z,3.28
2023-01-20T16:00:24.994Z,3.28
2023-01-20T16:02:53.942Z,3.26
2023-01-20T16:05:22.783Z,3.25
2023-01-20T16:07:51.231Z,3.26
2023-01-20T16:10:20.989Z,3.26
2023-01-20T16:12:50.336Z,3.23
2023-01-20T16:15:20.321Z,3.23
2023-01-20T16:17:51.419Z,3.23
2023-01-20T16:20:23.757Z,3.25
2023-01-20T16:22:52.688Z,3.26
2023-01-20T16:25:22.592Z,3.26
2023-01-20T16:27:51.298Z,3.28
2023-01-20T16:30:23.688Z,3.30
2023-01-20T16:32:52.554Z,3.30
2023-01-20T16:35:23.690Z,3.33
2023-01-20T16:37:52.834Z,3.33
2023-01-20T16:40:22.557Z,3.34
2023-01-20T16:42:51.185Z,3.34
2023-01-20T16:45:29.927Z,3.34
2023-01-20T16:47:58.541Z,3.30
2023-01-20T16:50:28.427Z,3.29
2023-01-20T16:52:56.932Z,3.24
2023-01-20T16:55:25.891Z,3.24
2023-01-20T16:57:54.617Z,3.24
2023-01-20T17:00:23.881Z,3.25
2023-01-20T17:02:54.717Z,3.23
2023-01-20T17:05:25.723Z,3.21
2023-01-20T17:07:56.848Z,3.19
2023-01-20T17:10:27.777Z,3.18
2023-01-20T17:12:57.139Z,3.15
2023-01-20T17:15:26.484Z,3.15
2023-01-20T17:18:00.327Z,3.12
2023-01-20T17:20:30.985Z,3.09
2023-01-20T17:22:59.360Z,3.15
2023-01-20T17:25:28.477Z,3.12
2023-01-20T17:27:56.761Z,3.27
2023-01-20T17:30:26.415Z,3.19
2023-01-20T17:32:56.395Z,3.09
2023-01-20T17:35:24.786Z,3.02
2023-01-20T17:37:53.290Z,2.95
2023-01-20T17:40:21.820Z,2.90
2023-01-20T17:42:53.917Z,2.88
2023-01-20T17:45:22.483Z,2.87
2023-01-20T17:47:52.535Z,2.86
2023-01-20T17:50:22.602Z,2.86
2023-01-20T17:52:51.880Z,2.84
2023-01-20T17:55:20.068Z,2.86
2023-01-20T17:57:48.723Z,2.89
2023-01-20T18:00:18.563Z,2.92
2023-01-20T18:02:47.103Z,2.94
2023-01-20T18:05:15.579Z,2.96
2023-01-20T18:07:45.738Z,2.98
2023-01-20T18:10:14.259Z,2.99
2023-01-20T18:12:42.842Z,2.98
2023-01-20T18:15:11.879Z,2.96
2023-01-20T18:17:43.739Z,2.90
2023-01-20T18:20:15.265Z,2.85
2023-01-20T18:22:50.579Z,2.82
2023-01-20T18:25:19.159Z,2.79
2023-01-20T18:27:47.525Z,2.81
2023-01-20T18:30:17.311Z,2.82
2023-01-20T18:32:46.292Z,2.87
2023-01-20T18:35:14.643Z,2.86
2023-01-20T18:37:43.045Z,2.86
2023-01-20T18:40:14.861Z,2.86
2023-01-20T18:42:45.071Z,2.84
2023-01-20T18:45:13.582Z,2.83
2023-01-20T18:47:42.587Z,2.82
2023-01-20T18:50:12.912Z,2.76
2023-01-20T18:52:41.636Z,2.69
2023-01-20T18:55:12.220Z,2.63
2023-01-20T18:57:40.519Z,2.59
2023-01-20T19:00:10.898Z,2.57
2023-01-20T19:02:39.261Z,2.56
2023-01-20T19:05:08.973Z,2.54
2023-01-20T19:07:37.652Z,2.52
2023-01-20T19:10:07.101Z,2.52
2023-01-20T19:12:37.183Z,2.52
2023-01-20T19:15:07.046Z,2.50
2023-01-20T19:17:35.717Z,2.48
2023-01-20T19:20:04.858Z,2.47
2023-01-20T19:22:33.062Z,2.45
2023-01-20T19:25:01.970Z,2.47
2023-01-20T19:27:32.574Z,2.50
2023-01-20T19:30:02.441Z,2.53
2023-01-20T19:32:31.021Z,2.57
2023-01-20T19:34:59.475Z,2.58
2023-01-20T19:37:28.477Z,2.57
2023-01-20T19:39:57.165Z,2.59
2023-01-20T19:42:25.975Z,2.59
2023-01-20T19:44:54.741Z,2.57
2023-01-20T19:47:24.920Z,2.58
2023-01-20T19:49:53.743Z,2.57
2023-01-20T19:52:22.349Z,2.53
2023-01-20T19:54:51.894Z,2.48
2023-01-20T19:57:20.682Z,2.46
2023-01-20T19:59:49.136Z,2.46
2023-01-20T20:02:17.390Z,2.43
2023-01-20T20:04:47.183Z,2.40
2023-01-20T20:07:15.414Z,2.38
2023-01-20T20:09:44.149Z,2.38
2023-01-20T20:12:12.687Z,2.33
2023-01-20T20:14:40.993Z,2.26
2023-01-20T20:17:09.690Z,2.20
2023-01-20T20:19:38.297Z,2.15
2023-01-20T20:22:09.606Z,2.11
2023-01-20T20:24:38.336Z,2.03
2023-01-20T20:27:07.610Z,1.94
2023-01-20T20:29:35.962Z,1.80
2023-01-20T20:32:04.466Z,1.69
2023-01-20T20:34:33.515Z,1.58
2023-01-20T20:37:01.816Z,1.48
2023-01-20T20:39:31.563Z,1.36
2023-01-20T20:41:59.957Z,1.26
2023-01-20T20:44:28.452Z,1.17
2023-01-20T20:46:57.022Z,1.09
2023-01-20T20:49:25.511Z,0.99
2023-01-20T20:51:53.989Z,0.91
2023-01-20T20:54:22.413Z,0.83
2023-01-20T20:56:52.181Z,0.73
2023-01-20T20:59:24.596Z,0.66
2023-01-20T21:01:54.486Z,0.60
2023-01-20T21:04:23.529Z,0.54
2023-01-20T21:06:51.945Z,0.49
2023-01-20T21:09:20.646Z,0.44
2023-01-20T21:11:48.913Z,0.38
2023-01-20T21:14:21.512Z,0.34
2023-01-20T21:16:49.823Z,0.31
2023-01-20T21:19:18.104Z,0.27
2023-01-20T21:21:46.530Z,0.23
2023-01-20T21:24:14.816Z,0.18
2023-01-20T21:26:43.546Z,0.17
2023-01-20T21:29:12.714Z,0.14
2023-01-20T21:31:42.824Z,0.12
2023-01-20T21:34:15.094Z,0.10
2023-01-20T21:36:44.208Z,0.09
2023-01-20T21:39:19.971Z,0.09
2023-01-20T21:41:48.546Z,0.11
2023-01-20T21:44:34.026Z,0.16
2023-01-20T21:47:05.992Z,0.22
2023-01-20T21:49:52.272Z,0.24
2023-01-20T21:52:52.174Z,0.31
2023-01-20T21:55:21.737Z,0.36
2023-01-20T21:57:51.546Z,0.41
2023-01-20T22:00:20.912Z,0.41
2023-01-20T22:02:50.875Z,0.41
2023-01-20T22:05:19.339Z,0.43
2023-01-20T22:07:48.412Z,0.45
2023-01-20T22:10:17.587Z,0.44
2023-01-20T22:12:46.121Z,0.39
2023-01-20T22:15:14.670Z,0.32
2023-01-20T22:17:43.171Z,0.29
2023-01-20T22:20:14.368Z,0.24
2023-01-20T22:22:42.850Z,0.20
2023-01-20T22:25:11.631Z,0.14
2023-01-20T22:27:40.016Z,0.09
2023-01-20T22:30:10.651Z,0.05
2023-01-20T22:32:39.023Z,0.04
2023-01-20T22:35:08.715Z,0.08
2023-01-20T22:37:39.011Z,0.16
2023-01-20T22:40:08.898Z,0.19
2023-01-20T22:42:37.282Z,0.19
2023-01-20T22:45:07.724Z,0.19
2023-01-20T22:47:36.089Z,0.20
2023-01-20T22:50:04.771Z,0.24
2023-01-20T22:52:33.314Z,0.29
2023-01-20T22:55:03.012Z,0.32
2023-01-20T22:57:32.061Z,0.35
2023-01-20T23:00:00.400Z,0.41
2023-01-20T23:02:28.949Z,0.47
2023-01-20T23:04:57.536Z,0.53
2023-01-20T23:07:25.979Z,0.57
2023-01-20T23:09:54.239Z,0.63
2023-01-20T23:12:23.930Z,0.71
2023-01-20T23:15:01.411Z,0.78
2023-01-20T23:17:35.954Z,0.85
2023-01-20T23:20:04.988Z,0.92
2023-01-20T23:22:33.291Z,0.97
2023-01-20T23:25:01.811Z,1.00
2023-01-20T23:27:31.488Z,1.07
2023-01-20T23:29:59.812Z,1.11
2023-01-20T23:32:28.195Z,1.13
2023-01-20T23:34:56.582Z,1.15
2023-01-20T23:37:25.131Z,1.14
2023-01-20T23:39:53.784Z,1.14
2023-01-20T23:42:22.133Z,1.15
2023-01-20T23:44:53.776Z,1.16
2023-01-20T23:47:22.662Z,1.17
2023-01-20T23:49:51.146Z,1.20
2023-01-20T23:52:21.808Z,1.22
2023-01-20T23:54:50.140Z,1.23
2023-01-20T23:57:18.663Z,1.26
2023-01-20T23:59:48.395Z,1.28
